Flight Track Log - Related Links

Times and Time Zones

All times are in EDT time to prevent confusion due to time zone crossing. See the RPA3159 flight status page for this flight to view local times or setup timezone preferences in your user account.

Time Position Orientation Groundspeed Altitude Reporting Facility
EDT Latitude Longitude Course Direction KTS MPH feet Rate Location/Type
Tue 11:24:27 AM 44.3028 -73.1856 195° South 282 325 7,900  Level Boston Center
Tue 11:25:26 AM 44.2400 -73.2081 194° South 282 325 10,000 2,100 Climbing Boston Center
Tue 11:26:27 AM 44.1439 -73.2500 197° South 295 339 12,100 2,281 Climbing Boston Center
Tue 11:27:27 AM 44.0583 -73.2836 196° South 320 368 14,600 2,319 Climbing Boston Center
Tue 11:28:00 AM 43.9339 -73.3443 194° South  Level FlightAware
Tue 11:28:26 AM 43.9872 -73.3144 197° South 327 376 16,700  Level Boston Center
Tue 11:29:00 AM 43.8449 -73.3770 195° South  Level FlightAware
Tue 11:29:27 AM 43.8639 -73.3617 195° South 348 400 19,500  Level Boston Center
Tue 11:30:27 AM 43.7656 -73.4031 197° South 359 413 21,700 2,000 Climbing Boston Center
Tue 11:31:27 AM 43.6653 -73.4417 196° South 375 432 23,500 1,700 Climbing Boston Center
Tue 11:32:27 AM 43.5606 -73.4858 197° South 381 438 25,100 1,250 Climbing Boston Center
Tue 11:33:27 AM 43.4519 -73.5269 195° South 393 452 26,000 450 Climbing Boston Center
Tue 11:34:27 AM 43.3472 -73.5650 195° South 399 459 26,000  Level Boston Center
Tue 11:35:27 AM 43.2425 -73.6114 198° South 399 459 26,000  Level Boston Center
Tue 11:36:39 AM 43.1339 -73.6522 195° South 399 459 26,000  Level Boston Center
Tue 11:37:39 AM 43.0039 -73.7064 197° South 405 466 26,000  Level Boston Center
Tue 11:38:39 AM 42.8972 -73.7467 195° South 405 466 26,000  Level Boston Center
Tue 11:39:39 AM 42.8008 -73.7842 196° South 405 466 26,000  Level Boston Center
Tue 11:40:39 AM 42.7253 -73.8419 209° Southwest 400 460 26,000  Level Boston Center
Tue 11:41:50 AM 42.6525 -73.9928 237° Southwest 393 452 26,000  Level Boston Center
Tue 11:42:51 AM 42.5814 -74.1489 238° Southwest 401 461 26,000  Level Boston Center
Tue 11:43:51 AM 42.5211 -74.2739 237° Southwest 407 468 26,000 -700 Level Boston Center
Tue 11:44:51 AM 42.4936 -74.4225 256° West 399 459 24,600 -1,000 Descending Boston Center
Tue 11:45:51 AM 42.4889 -74.5658 267° West 389 448 24,000 -366 Descending Boston Center
Tue 11:47:02 AM 42.4819 -74.7119 266° West 395 455 23,800 -754 Descending Boston Center
Tue 11:48:54 AM 42.3564 -74.9267 232° Southwest 340 391 21,700 -1,047 Descending New Center
Tue 11:49:54 AM 42.2714 -74.9744 203° Southwest 361 415 20,800 -942 Descending New Center
Tue 11:50:55 AM 42.1761 -75.0242 201° Southwest 366 421 19,800 -900 Descending New Center
Tue 11:51:54 AM 42.0742 -75.0792 202° Southwest 366 421 19,000 -403 Descending New Center
Tue 11:52:54 AM 41.9828 -75.1289 202° Southwest 355 409 19,000  Level New Center
Tue 11:53:54 AM 41.8953 -75.1928 209° Southwest 360 414 19,000  Level New Center
Tue 11:54:55 AM 41.8200 -75.2547 212° Southwest 365 420 19,000 -353 Level New Center
Tue 11:55:53 AM 41.7342 -75.3211 210° Southwest 365 420 18,300 -1,424 Descending New Center
Tue 11:56:53 AM 41.6439 -75.3956 212° Southwest 360 414 16,200 -1,900 Descending New Center
Tue 11:57:53 AM 41.5642 -75.4592 211° Southwest 347 399 14,500 -1,700 Descending New Center
Tue 11:58:53 AM 41.4956 -75.5125 210° Southwest 334 384 12,800 -1,250 Descending New Center
Tue 11:59:53 AM 41.4181 -75.5764 212° Southwest 334 384 12,000 -397 Descending New Center
Tue 12:00:54 PM 41.3428 -75.6344 210° Southwest 329 379 12,000  Level New Center
Tue 12:01:52 PM 41.2553 -75.6861 204° Southwest 329 379 12,000  Level New Center
Tue 12:02:53 PM 41.1739 -75.6886 181° South 301 346 12,000  Level New Center
Tue 12:03:54 PM 41.0867 -75.6822 177° South 306 352 12,000  Level New Center
Tue 12:04:54 PM 41.0169 -75.6525 162° South 306 352 12,000  Level New Center
Tue 12:05:54 PM 40.9267 -75.6183 164° South 312 359 12,000  Level New Center
Tue 12:06:55 PM 40.8447 -75.5878 164° South 312 359 12,000  Level New Center
Tue 12:07:52 PM 40.7625 -75.5547 163° South 312 359 12,000  Level New Center
Tue 12:08:53 PM 40.6806 -75.5217 163° South 312 359 12,000  Level New Center
Tue 12:09:55 PM 40.5986 -75.4886 163° South 312 359 12,000 -344 Level New Center
Tue 12:10:55 PM 40.5206 -75.4586 164° South 312 359 11,300 -1,017 Descending New Center
Tue 12:11:53 PM 40.4425 -75.4289 164° South 307 353 10,000 -661 Descending New Center
Tue 12:12:53 PM 40.3814 -75.3919 155° Southeast 281 323 10,000 -800 Level New Center
Tue 12:13:53 PM 40.3081 -75.3489 156° South 263 303 8,400 -1,672 Descending New Center
Tue 12:14:55 PM 40.2394 -75.3472 179° South 257 296 6,600 -1,180 Descending New Center
Tue 12:15:55 PM 40.1717 -75.3781 199° South 268 308 6,000 -305 Descending New Center
Tue 12:16:53 PM 40.0969 -75.4164 201° Southwest 273 314 6,000  Level New Center
Tue 12:17:53 PM 40.0356 -75.4450 200° South 273 314 6,000  Level New Center
Tue 12:18:54 PM 39.9803 -75.4708 200° South 216 249 6,000  Level New Center
Tue 12:19:55 PM 39.9356 -75.4950 203° Southwest 188 216 6,000  Level New Center
Tue 12:20:55 PM 39.8983 -75.5386 222° Southwest 178 205 6,000 -458 Level New Center
Tue 12:21:53 PM 39.8853 -75.6000 255° West 183 211 5,100 -504 Descending New Center
Tue 12:22:54 PM 39.8619 -75.6658 245° Southwest 201 231 5,000 -353 Descending New Center
Tue 12:25:00 PM 39.8167 -75.5667 121° Southeast 158 182 4,000 -563 Descending Philadelphia TRACON
Tue 12:26:06 PM 39.8167 -75.5000 90° East 162 186 3,200 -571 Descending Philadelphia TRACON
Tue 12:27:06 PM 39.8333 -75.4500 67° East 157 181 2,800 -650 Descending Philadelphia TRACON
Tue 12:28:06 PM 39.8333 -75.4000 90° East 157 181 1,900 -895 Descending Philadelphia TRACON
Tue 12:29:00 PM 39.8500 -75.3500 67° East 157 181 1,100 -750 Descending Philadelphia TRACON
Tue 12:30:06 PM 39.8500 -75.3000 90° East 117 135 400 -636 Descending Philadelphia TRACON
Tue 12:32:00 PM 39.8722 -75.2409 247° West  Level Estimated

Login

Don't have an account? Register now (free) for customized features, flight alerts, and more!